Doyon, North Dakota
Current Conditions -  °F | °C
As of 3:15 PM on Tuesday 27 Jan 2015 (Local Time) from KDVL Reporting Station
Clear Clear  
Wind Chill: 29°   Ceiling: Unl
Heat Index: 37°   Visibility: 10mi
Dew Point: 32°   Wind: 14mph
Humidity: 81%   Direction: 170°S
Pressure: 29.85"   Gusts: NA
Location:  48.0187°N, 98.6029°W
Report Text: KDVL 272115Z AUTO 17012KT 10SM CLR 03/00 A2985 RMK AO1
Loading
Personal Weather Stations






























Interactive Weather Map New forecast layout! Learn more

10-Day Weather Forecast

Advertisements
Track Severe Weather on mobile